• Join FlightAware (Why Join?)
  • Login
  • US Flag 
06:41AM EDT


 

Airport Tracker/Info


-or-


 

Live Flight TrackerFlight Track Log ✈ MTN8305 ✈ 15-May-2013 ✈ KEWR - KBWI

Flight Track Log - Related Links

Times and Time Zones

All times are in EDT time to prevent confusion due to time zone crossing. See the MTN8305 flight status page for this flight to view local times or setup timezone preferences in your user account.

Time Position Orientation Groundspeed Altitude Reporting Facility
EDT Latitude Longitude Course Direction KTS MPH feet Rate Location/Type
04:20AM 40.6667 -74.1833 270° West 111 128 1,000  Level New York TRACON
04:21AM 40.6667 -74.2167 270° West 97 112 1,800 780 Climbing New York TRACON
04:22AM 40.6500 -74.2667 246° West 103 119 2,600 780 Climbing New York TRACON
04:23AM 40.6500 -74.3000 270° West 107 123 3,500 660 Climbing New York TRACON
04:24AM 40.6500 -74.3500 270° West 114 131 4,000 240 Climbing New York TRACON
04:25AM 40.6333 -74.3833 237° Southwest 141 162 4,000  Level New York TRACON
04:26AM 40.6333 -74.4500 270° West 142 163 4,000  Level New York TRACON
04:27AM 40.6167 -74.4833 237° Southwest 142 163 4,000  Level New York TRACON
04:28AM 40.6167 -74.5333 270° West 142 163 4,000  Level New York TRACON
04:29AM 40.6000 -74.6000 252° West 139 160 4,000  Level New York TRACON
04:30AM 40.6000 -74.6500 270° West 139 160 4,000  Level New York TRACON
04:31AM 40.5833 -74.7000 246° West 139 160 4,000  Level New York TRACON
04:32AM 40.5833 -74.7500 270° West 136 157 4,000  Level New York TRACON
04:34AM 40.5784 -74.8100 264° West  Level FlightAware Approximate
04:36AM 40.5667 -74.9167 217° Southwest 136 157 4,100  Level Philadelphia TRACON
04:37AM 40.5500 -74.9667 246° West 134 154 4,100  Level Philadelphia TRACON
04:38AM 40.5333 -75.0000 237° Southwest 133 153 4,100  Level Philadelphia TRACON
04:39AM 40.5000 -75.0333 217° Southwest 134 154 4,100  Level Philadelphia TRACON
04:40AM 40.4667 -75.0667 217° Southwest 132 152 4,100  Level Philadelphia TRACON
04:41AM 40.4702 -75.0965 217° Southwest  Level FlightAware Approximate
04:41AM 40.4500 -75.0833 217° Southwest 132 152 4,100  Level Philadelphia TRACON
04:42AM 40.4167 -75.1333 229° Southwest 130 150 4,100  Level Philadelphia TRACON
04:43AM 40.3833 -75.1500 201° Southwest 128 147 4,100  Level Philadelphia TRACON
04:44AM 40.3500 -75.1833 217° Southwest 129 148 4,100  Level Philadelphia TRACON
04:45AM 40.3333 -75.2167 237° Southwest 128 147 4,100  Level Philadelphia TRACON
04:46AM 40.3000 -75.2500 217° Southwest 127 146 4,100  Level Philadelphia TRACON
04:47AM 40.2833 -75.2833 237° Southwest 127 146 4,100  Level Philadelphia TRACON
04:48AM 40.2500 -75.3000 201° Southwest 125 144 4,100  Level Philadelphia TRACON
04:49AM 40.2167 -75.3333 217° Southwest 125 144 4,100  Level Philadelphia TRACON
04:50AM 40.2000 -75.3667 237° Southwest 124 143 4,100  Level Philadelphia TRACON
04:51AM 40.1667 -75.4000 217° Southwest 127 146 4,100  Level Philadelphia TRACON
04:52AM 40.1500 -75.4333 237° Southwest 121 139 4,100  Level Philadelphia TRACON
04:53AM 40.1167 -75.4500 201° Southwest 120 138 4,100  Level Philadelphia TRACON
04:54AM 40.1000 -75.4833 237° Southwest 123 142 4,100  Level Philadelphia TRACON
04:55AM 40.0667 -75.5167 217° Southwest 120 138 4,100  Level Philadelphia TRACON
04:56AM 40.0500 -75.5500 237° Southwest 119 137 4,100  Level Philadelphia TRACON
04:57AM 40.0333 -75.5833 237° Southwest 122 140 4,100  Level Philadelphia TRACON
04:58AM 40.0000 -75.6000 201° Southwest 122 140 4,100  Level Philadelphia TRACON
04:59AM 39.9833 -75.6333 237° Southwest 124 143 4,100  Level Philadelphia TRACON
05:00AM 39.9500 -75.6667 217° Southwest 125 144 4,100  Level Philadelphia TRACON
05:01AM 39.9333 -75.7000 237° Southwest 128 147 4,100  Level Philadelphia TRACON
05:02AM 39.9000 -75.7333 217° Southwest 126 145 4,100  Level Philadelphia TRACON
05:03AM 39.8833 -75.7667 237° Southwest 125 144 4,200  Climbing Philadelphia TRACON
05:04AM 39.8500 -75.8000 218° Southwest 124 143 4,200  Level Philadelphia TRACON
05:05AM 39.8333 -75.8333 237° Southwest 125 144 4,200  Level Philadelphia TRACON
05:06AM 39.8167 -75.8667 237° Southwest 124 143 4,200  Level Philadelphia TRACON
05:07AM 39.7833 -75.9000 218° Southwest 128 147 4,200  Level Philadelphia TRACON
05:08AM 39.7500 -75.9333 218° Southwest 127 146 4,200  Level Philadelphia TRACON
05:09AM 39.7333 -75.9667 237° Southwest 126 145 4,200 -60 Level Philadelphia TRACON
05:10AM 39.7000 -76.0000 218° Southwest 128 147 4,100 -60 Descending Philadelphia TRACON
05:11AM 39.6833 -76.0333 237° Southwest 130 150 4,100 -60 Level Philadelphia TRACON
05:13AM 39.6333 -76.0833 218° Southwest 128 147 4,000 -60 Descending Potomac TRACON
05:14AM 39.6167 -76.1167 237° Southwest 127 146 4,000  Level Potomac TRACON
05:15AM 39.5833 -76.1500 218° Southwest 128 147 4,000  Level Potomac TRACON
05:15AM 39.5667 -76.1667 218° Southwest 131 151 4,000  Level Potomac TRACON
05:16AM 39.5333 -76.1833 201° Southwest 129 148 4,000  Level Potomac TRACON
05:17AM 39.5000 -76.2167 218° Southwest 129 148 4,000  Level Potomac TRACON
05:18AM 39.4667 -76.2333 201° Southwest 129 148 4,000  Level Potomac TRACON
05:19AM 39.4500 -76.2500 218° Southwest 131 151 4,000  Level Potomac TRACON
05:20AM 39.4167 -76.2667 201° Southwest 130 150 4,000  Level Potomac TRACON
05:21AM 39.3833 -76.3000 218° Southwest 133 153 4,000 -180 Level Potomac TRACON
05:22AM 39.3500 -76.3333 218° Southwest 140 161 3,700 -300 Descending Potomac TRACON
05:23AM 39.3167 -76.3667 218° Southwest 143 165 3,400 -300 Descending Potomac TRACON
05:24AM 39.3000 -76.4000 237° Southwest 144 166 3,100 -240 Descending Potomac TRACON
05:25AM 39.2667 -76.4333 218° Southwest 142 163 3,000 -60 Descending Potomac TRACON
05:26AM 39.2333 -76.4500 201° Southwest 139 160 3,000 -120 Level Potomac TRACON
05:27AM 39.2000 -76.4833 218° Southwest 136 157 2,800 -180 Descending Potomac TRACON
05:28AM 39.1833 -76.5333 247° West 135 155 2,700 -300 Descending Potomac TRACON
05:29AM 39.1667 -76.5667 237° Southwest 143 165 2,300 -780 Descending Potomac TRACON
05:30AM 39.1667 -76.6333 270° West 156 180 1,200 -1,140 Descending Potomac TRACON
05:32AM 39.1667 -76.6667 270° West  Level FlightAware Approximate
05:39AM 39.1754 -76.6683 270° West  Level Estimated
05:40AM 39.1754 -76.6683 270° West  Level Estimated
05:41AM 39.1754 -76.6683 270° West  Level Estimated